createdAt,value
2022-12-07T00:00:15.177Z,6.87
2022-12-07T00:02:44.688Z,6.07
2022-12-07T00:05:14.106Z,6.70
2022-12-07T00:07:43.637Z,5.27
2022-12-07T00:10:13.255Z,7.50
2022-12-07T00:12:45.406Z,6.87
2022-12-07T00:15:14.946Z,6.03
2022-12-07T00:17:44.401Z,5.40
2022-12-07T00:20:14.137Z,6.73
2022-12-07T00:22:43.634Z,5.03
2022-12-07T00:25:13.098Z,5.97
2022-12-07T00:27:45.268Z,5.43
2022-12-07T00:30:15.029Z,6.13
2022-12-07T00:32:44.437Z,5.87
2022-12-07T00:35:13.942Z,6.13
2022-12-07T00:37:43.374Z,5.53
2022-12-07T00:40:13.297Z,7.97
2022-12-07T00:42:45.317Z,4.53
2022-12-07T00:45:14.783Z,5.33
2022-12-07T00:47:44.180Z,5.83
2022-12-07T00:50:13.801Z,6.17
2022-12-07T00:52:43.241Z,5.80
2022-12-07T00:55:12.744Z,6.30
2022-12-07T00:57:42.280Z,6.00
2022-12-07T01:00:14.864Z,5.43
2022-12-07T01:02:44.406Z,5.80
2022-12-07T01:05:13.921Z,6.37
2022-12-07T01:07:43.442Z,6.50
2022-12-07T01:10:13.547Z,6.40
2022-12-07T01:12:43.102Z,6.75
2022-12-07T01:15:15.415Z,6.20
2022-12-07T01:17:44.949Z,6.60
2022-12-07T01:20:16.792Z,5.60
2022-12-07T01:22:46.866Z,5.63
2022-12-07T01:25:16.479Z,4.73
2022-12-07T01:27:46.047Z,5.57
2022-12-07T01:30:18.636Z,5.03
2022-12-07T01:32:48.117Z,5.63
2022-12-07T01:35:17.739Z,4.83
2022-12-07T01:37:47.198Z,4.90
2022-12-07T01:40:16.855Z,4.87
2022-12-07T01:42:46.296Z,4.40
2022-12-07T01:45:40.627Z,8.00
2022-12-07T01:48:11.885Z,8.67
2022-12-07T01:50:41.849Z,5.53
2022-12-07T01:53:12.938Z,6.00
2022-12-07T01:55:44.059Z,6.93
2022-12-07T01:58:14.321Z,6.63
2022-12-07T02:00:47.024Z,5.17
2022-12-07T02:03:19.140Z,5.68
2022-12-07T02:05:50.231Z,6.03
2022-12-07T02:08:20.619Z,6.80
2022-12-07T02:10:50.083Z,5.07
2022-12-07T02:13:20.526Z,6.57
2022-12-07T02:16:04.990Z,7.33
2022-12-07T02:18:42.273Z,5.53
2022-12-07T02:21:13.587Z,6.70
2022-12-07T02:23:57.958Z,5.57
2022-12-07T02:26:39.275Z,6.43
2022-12-07T02:29:21.209Z,8.47
2022-12-07T02:31:54.694Z,5.27
2022-12-07T02:34:26.880Z,5.23
2022-12-07T02:36:58.164Z,5.27
2022-12-07T02:39:30.977Z,5.80
2022-12-07T02:42:03.351Z,5.80
2022-12-07T02:44:36.553Z,5.80
2022-12-07T02:47:08.611Z,7.30
2022-12-07T02:49:39.244Z,7.33
2022-12-07T02:52:09.018Z,6.20
2022-12-07T02:54:38.473Z,7.33
2022-12-07T02:57:13.269Z,7.80
2022-12-07T02:59:52.617Z,7.27
2022-12-07T03:02:27.472Z,6.37
2022-12-07T03:05:03.192Z,8.47
2022-12-07T03:07:37.017Z,6.97
2022-12-07T03:10:10.197Z,5.90
2022-12-07T03:12:43.317Z,6.80
2022-12-07T03:15:16.758Z,7.30
2022-12-07T03:17:48.263Z,5.93
2022-12-07T03:20:19.788Z,6.17
2022-12-07T03:22:50.912Z,6.37
2022-12-07T03:25:20.728Z,6.37
2022-12-07T03:27:53.315Z,6.20
2022-12-07T03:30:26.864Z,6.10
2022-12-07T03:33:00.387Z,6.97
2022-12-07T03:35:30.894Z,6.00
2022-12-07T03:38:02.765Z,6.20
2022-12-07T03:40:34.389Z,5.77
2022-12-07T03:43:04.780Z,6.67
2022-12-07T03:45:42.044Z,7.60
2022-12-07T03:48:13.533Z,7.27
2022-12-07T03:50:45.861Z,6.00
2022-12-07T03:53:17.940Z,7.90
2022-12-07T03:55:49.732Z,7.83
2022-12-07T03:58:22.865Z,7.57
2022-12-07T04:00:55.248Z,6.63
2022-12-07T04:03:24.860Z,7.00
2022-12-07T04:05:54.373Z,8.53
2022-12-07T04:08:23.938Z,7.03
2022-12-07T04:10:53.464Z,6.60
2022-12-07T04:13:22.925Z,7.10
2022-12-07T04:15:55.057Z,6.33
2022-12-07T04:18:24.557Z,6.30
2022-12-07T04:20:54.156Z,7.43
2022-12-07T04:23:23.694Z,6.80
2022-12-07T04:25:53.205Z,8.53
2022-12-07T04:28:22.731Z,7.57
2022-12-07T04:30:52.248Z,6.77
2022-12-07T04:33:24.396Z,6.13
2022-12-07T04:35:53.926Z,6.37
2022-12-07T04:38:23.381Z,7.00
2022-12-07T04:40:52.921Z,6.23
2022-12-07T04:43:22.404Z,6.83
2022-12-07T04:45:52.266Z,8.13
2022-12-07T04:48:24.346Z,7.47
2022-12-07T04:50:53.845Z,7.83
2022-12-07T04:53:23.290Z,6.90
2022-12-07T04:55:52.839Z,7.37
2022-12-07T04:58:22.347Z,7.73
2022-12-07T05:00:51.895Z,7.07
2022-12-07T05:03:24.044Z,7.73
2022-12-07T05:05:53.534Z,9.37
2022-12-07T05:08:23.057Z,7.40
2022-12-07T05:10:52.688Z,7.80
2022-12-07T05:13:22.141Z,8.23
2022-12-07T05:15:51.894Z,9.03
2022-12-07T05:18:24.051Z,8.37
2022-12-07T05:20:54.362Z,8.03
2022-12-07T05:23:23.946Z,9.30
2022-12-07T05:25:53.900Z,8.60
2022-12-07T05:28:23.338Z,10.20
2022-12-07T05:30:58.265Z,9.20
2022-12-07T05:33:31.947Z,9.97
2022-12-07T05:36:06.463Z,9.47
2022-12-07T05:38:36.415Z,9.33
2022-12-07T05:41:06.290Z,8.40
2022-12-07T05:43:33.578Z,9.37
2022-12-07T05:46:03.261Z,8.10
2022-12-07T05:48:35.492Z,9.77
2022-12-07T05:51:05.029Z,7.67
2022-12-07T05:53:34.488Z,8.50
2022-12-07T05:56:04.009Z,8.53
2022-12-07T05:58:48.486Z,8.47
2022-12-07T06:01:17.983Z,8.20
2022-12-07T06:03:50.036Z,8.20
2022-12-07T06:06:19.653Z,9.17
2022-12-07T06:08:49.295Z,9.20
2022-12-07T06:11:31.280Z,8.87
2022-12-07T06:14:00.811Z,7.47
2022-12-07T06:16:30.361Z,7.50
2022-12-07T06:19:02.532Z,9.20
2022-12-07T06:21:32.082Z,8.57
2022-12-07T06:24:01.503Z,10.77
2022-12-07T06:26:31.053Z,8.83
2022-12-07T06:29:00.509Z,8.10
2022-12-07T06:31:30.007Z,8.03
2022-12-07T06:34:04.040Z,10.97
2022-12-07T06:36:33.712Z,10.70
2022-12-07T06:39:03.228Z,10.30
2022-12-07T06:41:32.851Z,11.33
2022-12-07T06:44:02.398Z,10.17
2022-12-07T06:46:32.035Z,10.50
2022-12-07T06:49:04.239Z,13.03
2022-12-07T06:51:33.878Z,11.83
2022-12-07T06:54:03.343Z,10.67
2022-12-07T06:56:32.964Z,11.00
2022-12-07T06:59:02.472Z,12.27
2022-12-07T07:01:32.464Z,11.05
2022-12-07T07:04:04.860Z,9.40
2022-12-07T07:06:34.512Z,10.40
2022-12-07T07:09:04.075Z,11.07
2022-12-07T07:11:33.583Z,9.37
2022-12-07T07:14:03.714Z,12.50
2022-12-07T07:16:33.865Z,12.77
2022-12-07T07:19:06.044Z,11.00
2022-12-07T07:21:35.638Z,12.10
2022-12-07T07:24:05.172Z,9.97
2022-12-07T07:26:34.752Z,9.77
2022-12-07T07:29:04.271Z,10.33
2022-12-07T07:35:15.434Z,12.57
2022-12-07T07:41:59.960Z,12.27
2022-12-07T07:48:47.750Z,8.93
2022-12-07T07:52:02.061Z,12.73
2022-12-07T07:55:16.323Z,12.73
2022-12-07T07:57:58.904Z,8.97
2022-12-07T08:00:28.531Z,12.53
2022-12-07T08:02:58.038Z,13.40
2022-12-07T08:05:27.637Z,12.07
2022-12-07T08:07:57.138Z,10.23
2022-12-07T08:10:27.071Z,12.17
2022-12-07T08:13:11.641Z,10.33
2022-12-07T08:15:41.811Z,13.10
2022-12-07T08:18:11.388Z,9.90
2022-12-07T08:21:26.372Z,9.67
2022-12-07T08:24:45.795Z,11.63
2022-12-07T08:27:46.955Z,10.53
2022-12-07T08:30:56.618Z,10.70
2022-12-07T08:33:30.203Z,12.33
2022-12-07T08:36:03.858Z,10.13
2022-12-07T08:38:33.401Z,11.90
2022-12-07T08:41:02.903Z,11.77
2022-12-07T08:43:32.809Z,14.83
2022-12-07T08:46:08.455Z,13.53
2022-12-07T08:48:40.022Z,11.60
2022-12-07T08:51:09.559Z,11.87
2022-12-07T08:53:39.592Z,10.70
2022-12-07T08:56:12.584Z,11.37
2022-12-07T08:58:42.648Z,12.30
2022-12-07T09:01:14.886Z,13.13
2022-12-07T09:03:44.399Z,11.03
2022-12-07T09:06:14.029Z,12.80
2022-12-07T09:08:46.223Z,11.03
2022-12-07T09:11:15.932Z,10.77
2022-12-07T09:13:45.406Z,10.90
2022-12-07T09:16:17.870Z,11.00
2022-12-07T09:18:47.393Z,9.63
2022-12-07T09:21:16.859Z,10.07
2022-12-07T09:23:46.831Z,10.97
2022-12-07T09:26:16.360Z,11.20
2022-12-07T09:28:45.941Z,12.87
2022-12-07T09:31:26.318Z,12.60
2022-12-07T09:33:59.517Z,13.03
2022-12-07T09:36:29.460Z,14.40
2022-12-07T09:38:59.079Z,12.87
2022-12-07T09:41:29.523Z,11.37
2022-12-07T09:44:06.406Z,11.53
2022-12-07T09:46:40.697Z,10.97
2022-12-07T09:49:13.559Z,11.43
2022-12-07T09:51:43.172Z,8.87
2022-12-07T09:54:13.407Z,9.47
2022-12-07T09:56:42.978Z,12.27
2022-12-07T09:59:16.059Z,8.67
2022-12-07T10:01:49.182Z,11.13
2022-12-07T10:04:20.230Z,11.17
2022-12-07T10:06:52.196Z,17.20
2022-12-07T10:09:23.921Z,10.90
2022-12-07T10:12:03.650Z,9.10
2022-12-07T10:15:05.466Z,10.03
2022-12-07T10:17:38.051Z,10.47
2022-12-07T10:20:21.850Z,8.77
2022-12-07T10:23:09.295Z,12.03
2022-12-07T10:25:41.692Z,11.57
2022-12-07T10:28:18.735Z,10.70
2022-12-07T10:30:52.744Z,12.07
2022-12-07T10:33:34.799Z,13.60
2022-12-07T10:36:05.118Z,10.30
2022-12-07T10:38:34.691Z,14.27
2022-12-07T10:41:07.851Z,11.27
2022-12-07T10:43:37.639Z,11.23
2022-12-07T10:46:22.766Z,11.70
2022-12-07T10:48:59.264Z,11.60
2022-12-07T10:51:37.591Z,10.27
2022-12-07T10:54:16.158Z,9.47
2022-12-07T10:57:06.262Z,10.13
2022-12-07T10:59:45.278Z,13.33
2022-12-07T11:02:23.822Z,10.00
2022-12-07T11:05:00.676Z,9.23
2022-12-07T11:07:38.789Z,10.93
2022-12-07T11:10:12.098Z,10.73
2022-12-07T11:12:51.406Z,10.60
2022-12-07T11:15:22.322Z,9.77
2022-12-07T11:17:54.526Z,9.43
2022-12-07T11:20:33.130Z,9.97
2022-12-07T11:23:07.157Z,10.00
2022-12-07T11:25:39.691Z,15.17
2022-12-07T11:28:18.434Z,8.80
2022-12-07T11:30:53.954Z,9.23
2022-12-07T11:33:25.805Z,8.43
2022-12-07T11:36:05.080Z,9.03
2022-12-07T11:38:39.681Z,10.77
2022-12-07T11:41:17.072Z,8.43
2022-12-07T11:43:54.250Z,10.57
2022-12-07T11:46:25.570Z,8.40
2022-12-07T11:48:59.025Z,9.87
2022-12-07T11:51:33.774Z,12.57
2022-12-07T11:54:05.579Z,10.57
2022-12-07T11:56:39.710Z,7.23
2022-12-07T11:59:14.080Z,8.40
2022-12-07T12:01:48.153Z,10.20
2022-12-07T12:04:24.363Z,9.63
2022-12-07T12:06:57.290Z,8.70
2022-12-07T12:15:29.217Z,10.87
2022-12-07T12:18:15.171Z,14.97
2022-12-07T12:20:47.193Z,9.40
2022-12-07T12:23:21.003Z,9.60
2022-12-07T12:25:51.636Z,9.57
2022-12-07T12:28:27.950Z,11.47
2022-12-07T12:31:11.512Z,9.73
2022-12-07T12:33:41.872Z,8.43
2022-12-07T12:36:26.500Z,7.68
2022-12-07T12:39:14.732Z,7.77
2022-12-07T12:42:12.373Z,7.47
2022-12-07T12:45:08.901Z,8.60
2022-12-07T12:47:59.224Z,7.67
2022-12-07T12:50:30.472Z,8.80
2022-12-07T12:53:05.676Z,7.83
2022-12-07T12:55:53.245Z,9.43
2022-12-07T12:58:32.628Z,8.53
2022-12-07T13:01:17.329Z,8.37
2022-12-07T13:03:55.398Z,7.63
2022-12-07T13:06:39.111Z,8.43
2022-12-07T13:09:08.912Z,7.27
2022-12-07T13:11:39.726Z,8.83
2022-12-07T13:14:30.925Z,10.67
2022-12-07T13:17:05.925Z,8.10
2022-12-07T13:20:03.034Z,7.67
2022-12-07T13:22:42.862Z,9.67
2022-12-07T13:25:13.470Z,5.97
2022-12-07T13:27:44.250Z,6.67
2022-12-07T13:30:17.911Z,5.53
2022-12-07T13:32:54.946Z,6.17
2022-12-07T13:35:34.731Z,6.30
2022-12-07T13:38:06.259Z,9.60
2022-12-07T13:40:36.190Z,7.20
2022-12-07T13:43:06.853Z,6.60
2022-12-07T13:45:52.740Z,6.37
2022-12-07T13:48:31.841Z,7.77
2022-12-07T13:51:02.215Z,7.00
2022-12-07T13:53:32.854Z,6.93
2022-12-07T13:56:02.885Z,6.17
2022-12-07T13:58:34.543Z,7.93
2022-12-07T14:01:04.157Z,5.73
2022-12-07T14:03:37.900Z,5.93
2022-12-07T14:06:16.828Z,8.70
2022-12-07T14:08:46.626Z,6.33
2022-12-07T14:11:20.750Z,5.90
2022-12-07T14:14:01.096Z,7.23
2022-12-07T14:16:32.017Z,5.77
2022-12-07T14:19:05.533Z,8.67
2022-12-07T14:21:35.637Z,8.03
2022-12-07T14:24:16.125Z,5.87
2022-12-07T14:26:45.759Z,7.43
2022-12-07T14:29:25.682Z,6.80
2022-12-07T14:31:55.842Z,5.97
2022-12-07T14:34:28.500Z,5.47
2022-12-07T14:36:58.028Z,5.57
2022-12-07T14:39:27.514Z,8.17
2022-12-07T14:41:57.244Z,9.10
2022-12-07T14:44:32.440Z,5.70
2022-12-07T14:49:59.185Z,5.97
2022-12-07T14:55:24.478Z,5.73
2022-12-07T14:57:54.201Z,6.13
2022-12-07T15:00:24.814Z,6.37
2022-12-07T15:02:54.918Z,6.00
2022-12-07T15:05:27.282Z,5.17
2022-12-07T15:07:57.000Z,6.77
2022-12-07T15:10:31.089Z,7.03
2022-12-07T15:13:21.310Z,9.37
2022-12-07T15:15:51.467Z,7.93
2022-12-07T15:18:21.106Z,9.57
2022-12-07T15:20:53.567Z,9.37
2022-12-07T15:23:23.156Z,10.47
2022-12-07T15:25:53.178Z,7.07
2022-12-07T15:28:22.646Z,13.50
2022-12-07T15:30:52.203Z,10.03
2022-12-07T15:33:21.674Z,9.53
2022-12-07T15:35:53.809Z,12.43
2022-12-07T15:38:55.999Z,11.50
2022-12-07T15:41:17.825Z,9.83
2022-12-07T15:43:59.823Z,7.27
2022-12-07T15:46:33.171Z,11.70
2022-12-07T15:49:03.017Z,9.30
2022-12-07T15:51:35.128Z,6.53
2022-12-07T15:54:04.679Z,8.37
2022-12-07T15:56:34.156Z,7.47
2022-12-07T15:59:03.706Z,10.57
2022-12-07T16:01:33.265Z,7.10
2022-12-07T16:04:03.012Z,5.87
2022-12-07T16:06:35.242Z,8.90
2022-12-07T16:09:04.796Z,6.27
2022-12-07T16:51:17.212Z,8.93
2022-12-07T16:54:14.874Z,10.33
2022-12-07T16:56:50.240Z,10.17
2022-12-07T16:59:19.791Z,10.50
2022-12-07T17:01:49.222Z,9.10
2022-12-07T17:04:18.797Z,9.40
2022-12-07T17:06:51.014Z,9.13
2022-12-07T17:09:21.578Z,7.10
2022-12-07T17:11:52.264Z,10.60
2022-12-07T17:14:34.169Z,10.37
2022-12-07T17:17:04.128Z,10.03
2022-12-07T17:19:33.594Z,10.93
2022-12-07T17:22:05.739Z,7.83
2022-12-07T17:24:35.271Z,10.70
2022-12-07T17:27:04.740Z,9.13
2022-12-07T17:29:34.471Z,8.43
2022-12-07T17:32:04.083Z,8.10
2022-12-07T17:34:34.003Z,10.30
2022-12-07T17:37:06.299Z,9.03
2022-12-07T17:39:35.780Z,9.80
2022-12-07T17:42:17.689Z,13.87
2022-12-07T17:44:47.234Z,12.53
2022-12-07T17:47:18.277Z,11.63
2022-12-07T17:49:49.219Z,8.83
2022-12-07T17:52:33.845Z,11.73
2022-12-07T17:55:03.609Z,9.63
2022-12-07T17:57:33.316Z,11.63
2022-12-07T18:00:02.782Z,9.93
2022-12-07T18:02:41.341Z,9.43
2022-12-07T18:05:11.401Z,11.60
2022-12-07T18:07:43.637Z,8.67
2022-12-07T18:10:13.316Z,36.20
2022-12-07T18:12:47.567Z,14.60
2022-12-07T18:15:20.143Z,10.73
2022-12-07T18:17:50.527Z,13.37
2022-12-07T18:20:19.991Z,10.50
2022-12-07T18:22:52.146Z,8.37
2022-12-07T18:25:21.789Z,9.33
2022-12-07T18:27:51.254Z,9.27
2022-12-07T18:30:35.691Z,11.47
2022-12-07T18:33:10.902Z,19.13
2022-12-07T18:35:40.372Z,18.00
2022-12-07T18:38:12.549Z,11.03
2022-12-07T18:40:42.237Z,10.90
2022-12-07T18:43:12.338Z,10.03
2022-12-07T18:45:42.801Z,12.83
2022-12-07T18:48:12.363Z,14.80
2022-12-07T18:50:41.837Z,13.90
2022-12-07T18:53:14.362Z,12.07
2022-12-07T18:55:43.860Z,13.83
2022-12-07T18:58:13.316Z,11.07
2022-12-07T19:04:04.972Z,8.10
2022-12-07T19:07:06.881Z,11.77
2022-12-07T19:20:37.191Z,8.90
2022-12-07T19:24:19.741Z,9.50
2022-12-07T19:37:52.872Z,8.27
2022-12-07T19:47:25.390Z,9.43
2022-12-07T19:53:13.448Z,8.40
2022-12-07T19:59:41.139Z,9.90
2022-12-07T20:03:05.840Z,9.57
2022-12-07T20:10:25.790Z,9.73
2022-12-07T20:17:13.652Z,8.83
2022-12-07T20:20:36.480Z,12.53
2022-12-07T20:31:03.052Z,10.23
2022-12-07T20:45:18.218Z,11.27
2022-12-07T20:48:46.389Z,11.13
2022-12-07T20:52:27.996Z,13.17
2022-12-07T21:05:54.189Z,9.30
2022-12-07T21:09:26.117Z,7.80
2022-12-07T21:12:27.102Z,7.70
2022-12-07T21:15:21.313Z,10.80
2022-12-07T21:22:19.830Z,7.83
2022-12-07T21:24:53.278Z,8.00
2022-12-07T21:27:22.861Z,9.37
2022-12-07T21:29:54.326Z,7.50
2022-12-07T21:32:24.229Z,15.30
2022-12-07T21:34:53.876Z,9.13
2022-12-07T21:37:23.534Z,8.67
2022-12-07T21:39:56.023Z,8.53
2022-12-07T21:46:13.313Z,7.43
2022-12-07T21:49:53.777Z,8.30
2022-12-07T21:57:14.217Z,9.67
2022-12-07T22:18:24.755Z,10.47
2022-12-07T22:21:36.293Z,9.60
2022-12-07T22:35:01.548Z,8.10
2022-12-07T22:55:13.441Z,12.63
2022-12-07T22:58:29.933Z,13.20
2022-12-07T23:04:56.356Z,13.27
2022-12-07T23:07:25.900Z,10.90
2022-12-07T23:09:55.361Z,13.13
2022-12-07T23:12:37.464Z,11.63
2022-12-07T23:15:10.362Z,13.30
2022-12-07T23:17:39.959Z,9.60
2022-12-07T23:20:10.166Z,9.80
2022-12-07T23:22:40.051Z,12.17
2022-12-07T23:25:10.076Z,12.37
2022-12-07T23:27:39.822Z,14.27
2022-12-07T23:30:12.594Z,13.53
2022-12-07T23:32:42.270Z,11.67
2022-12-07T23:35:12.029Z,9.83
2022-12-07T23:37:41.514Z,9.97
2022-12-07T23:40:11.854Z,10.10
2022-12-07T23:42:41.341Z,10.83
2022-12-07T23:45:14.006Z,12.87
2022-12-07T23:47:43.556Z,9.43
2022-12-07T23:50:13.306Z,11.87
2022-12-07T23:52:42.838Z,11.63
2022-12-07T23:55:12.726Z,10.57
2022-12-07T23:57:42.261Z,9.37
